createdAt,value
2023-04-26T00:02:43.816Z,99698.47
2023-04-26T00:05:46.834Z,99707.09
2023-04-26T00:08:49.436Z,99706.31
2023-04-26T00:11:52.114Z,99712.31
2023-04-26T00:14:54.841Z,99707.94
2023-04-26T00:17:57.306Z,99716.63
2023-04-26T00:20:59.826Z,99726.16
2023-04-26T00:24:02.284Z,99721.91
2023-04-26T00:27:10.278Z,99715.00
2023-04-26T00:30:13.368Z,99747.31
2023-04-26T00:33:15.952Z,99727.22
2023-04-26T00:36:19.630Z,99743.78
2023-04-26T00:39:22.583Z,99745.38
2023-04-26T00:42:25.009Z,99745.41
2023-04-26T00:45:27.513Z,99752.41
2023-04-26T00:48:30.558Z,99751.59
2023-04-26T00:51:32.950Z,99747.16
2023-04-26T00:54:35.508Z,99755.88
2023-04-26T00:57:38.056Z,99748.72
2023-04-26T01:00:40.558Z,99756.63
2023-04-26T01:03:44.730Z,99754.16
2023-04-26T01:06:47.459Z,99753.75
2023-04-26T01:09:50.700Z,99755.44
2023-04-26T01:12:53.052Z,99767.44
2023-04-26T01:15:55.846Z,99765.47
2023-04-26T01:18:58.439Z,99763.75
2023-04-26T01:22:01.103Z,99771.34
2023-04-26T01:25:04.731Z,99764.56
2023-04-26T01:28:08.777Z,99769.50
2023-04-26T01:31:11.183Z,99765.81
2023-04-26T01:34:13.894Z,99780.44
2023-04-26T01:37:16.545Z,99781.47
2023-04-26T01:40:19.155Z,99789.13
2023-04-26T01:43:23.114Z,99789.19
2023-04-26T01:46:25.968Z,99790.09
2023-04-26T01:49:28.460Z,99791.75
2023-04-26T01:52:30.824Z,99803.16
2023-04-26T01:55:34.246Z,99801.09
2023-04-26T01:58:36.650Z,99804.53
2023-04-26T02:01:41.196Z,99807.03
2023-04-26T02:04:46.176Z,99811.22
2023-04-26T02:07:48.775Z,99809.41
2023-04-26T02:10:51.142Z,99804.28
2023-04-26T02:13:54.660Z,99808.66
2023-04-26T02:16:57.236Z,99820.34
2023-04-26T02:19:59.787Z,99811.03
2023-04-26T02:23:02.171Z,99811.00
2023-04-26T02:26:05.042Z,99820.44
2023-04-26T02:29:07.591Z,99804.88
2023-04-26T02:32:10.080Z,99818.63
2023-04-26T02:35:12.540Z,99807.13
2023-04-26T02:38:15.646Z,99816.50
2023-04-26T02:41:18.318Z,99815.41
2023-04-26T02:44:20.945Z,99820.09
2023-04-26T02:47:23.640Z,99818.38
2023-04-26T02:50:26.277Z,99817.34
2023-04-26T02:53:28.921Z,99822.53
2023-04-26T02:56:31.542Z,99824.25
2023-04-26T02:59:34.049Z,99826.09
2023-04-26T03:02:37.566Z,99831.16
2023-04-26T03:05:40.468Z,99834.53
2023-04-26T03:08:43.153Z,99838.03
2023-04-26T03:11:46.467Z,99850.94
2023-04-26T03:14:50.254Z,99853.78
2023-04-26T03:17:53.448Z,99856.00
2023-04-26T03:20:57.212Z,99870.75
2023-04-26T03:24:00.072Z,99869.97
2023-04-26T03:27:02.699Z,99865.38
2023-04-26T03:30:05.971Z,99873.38
2023-04-26T03:33:10.303Z,99879.41
2023-04-26T03:36:12.991Z,99875.13
2023-04-26T03:39:16.990Z,99880.13
2023-04-26T03:42:22.785Z,99881.13
2023-04-26T03:45:26.922Z,99893.94
2023-04-26T03:48:29.335Z,99898.16
2023-04-26T03:51:31.767Z,99897.19
2023-04-26T03:54:37.296Z,99906.66
2023-04-26T03:57:39.756Z,99905.13
2023-04-26T04:00:45.031Z,99907.44
2023-04-26T04:03:47.917Z,99917.97
2023-04-26T04:06:51.346Z,99905.53
2023-04-26T04:09:54.100Z,99916.34
2023-04-26T04:12:56.751Z,99915.38
2023-04-26T04:15:59.250Z,99921.78
2023-04-26T04:19:01.888Z,99914.81
2023-04-26T04:22:04.759Z,99921.81
2023-04-26T04:25:10.575Z,99922.00
2023-04-26T04:28:14.821Z,99928.16
2023-04-26T04:31:17.750Z,99921.78
2023-04-26T04:34:20.605Z,99918.16
2023-04-26T04:37:25.909Z,99924.66
2023-04-26T04:40:28.362Z,99935.56
2023-04-26T04:43:32.014Z,99944.56
2023-04-26T04:46:34.694Z,99952.16
2023-04-26T04:49:37.634Z,99950.72
2023-04-26T04:52:40.277Z,99960.44
2023-04-26T04:55:42.726Z,99956.31
2023-04-26T04:58:47.860Z,99959.16
2023-04-26T05:01:51.752Z,99957.56
2023-04-26T05:04:55.454Z,99970.38
2023-04-26T05:07:57.994Z,99987.06
2023-04-26T05:11:00.688Z,99987.38
2023-04-26T05:14:03.373Z,99986.38
2023-04-26T05:17:06.653Z,99989.06
2023-04-26T05:20:09.508Z,99981.28
2023-04-26T05:23:12.162Z,99987.31
2023-04-26T05:26:15.889Z,99988.56
2023-04-26T05:29:31.499Z,100001.84
2023-04-26T05:32:42.843Z,99999.38
2023-04-26T05:36:11.738Z,99994.59
2023-04-26T05:39:14.368Z,100006.03
2023-04-26T05:42:17.994Z,100001.25
2023-04-26T05:45:21.163Z,100011.72
2023-04-26T05:48:25.624Z,100011.06
2023-04-26T05:51:28.231Z,100012.81
2023-04-26T05:54:30.790Z,100008.66
2023-04-26T05:57:34.819Z,100014.03
2023-04-26T06:00:37.673Z,100017.63
2023-04-26T06:03:40.244Z,100017.94
2023-04-26T06:06:43.089Z,100021.47
2023-04-26T06:09:45.879Z,100023.22
2023-04-26T06:12:48.500Z,100025.91
2023-04-26T06:15:53.697Z,100018.22
2023-04-26T06:18:57.023Z,100020.31
2023-04-26T06:21:59.616Z,100022.50
2023-04-26T06:25:02.568Z,100022.69
2023-04-26T06:28:05.155Z,100042.91
2023-04-26T06:31:07.878Z,100029.50
2023-04-26T06:34:12.210Z,100036.81
2023-04-26T06:37:14.964Z,100028.97
2023-04-26T06:40:18.831Z,100022.88
2023-04-26T06:43:21.495Z,100020.31
2023-04-26T06:46:33.365Z,100031.88
2023-04-26T06:49:37.999Z,100026.78
2023-04-26T06:52:42.784Z,100024.56
2023-04-26T06:55:46.192Z,100034.22
2023-04-26T06:59:05.521Z,100029.22
2023-04-26T07:02:08.251Z,100025.31
2023-04-26T07:05:11.017Z,100042.91
2023-04-26T07:08:13.467Z,100032.50
2023-04-26T07:11:16.395Z,100045.13
2023-04-26T07:14:19.160Z,100038.72
2023-04-26T07:17:22.315Z,100042.44
2023-04-26T07:20:24.736Z,100057.63
2023-04-26T07:23:27.179Z,100054.88
2023-04-26T07:26:29.913Z,100050.13
2023-04-26T07:29:32.301Z,100045.28
2023-04-26T07:32:35.248Z,100056.13
2023-04-26T07:35:37.806Z,100071.16
2023-04-26T07:38:40.303Z,100067.66
2023-04-26T07:41:44.095Z,100070.63
2023-04-26T07:44:48.494Z,100065.69
2023-04-26T07:47:50.956Z,100068.13
2023-04-26T07:50:53.427Z,100079.78
2023-04-26T07:53:56.062Z,100073.66
2023-04-26T07:56:58.523Z,100084.03
2023-04-26T08:00:01.257Z,100073.72
2023-04-26T08:03:04.029Z,100088.63
2023-04-26T08:06:08.882Z,100076.22
2023-04-26T08:09:11.570Z,100085.91
2023-04-26T08:12:14.147Z,100081.69
2023-04-26T08:15:16.812Z,100075.72
2023-04-26T08:18:19.488Z,100086.38
2023-04-26T08:21:22.032Z,100087.28
2023-04-26T08:24:24.464Z,100100.41
2023-04-26T08:27:28.378Z,100104.94
2023-04-26T08:30:30.914Z,100098.66
2023-04-26T08:33:33.446Z,100098.75
2023-04-26T08:36:39.653Z,100089.13
2023-04-26T08:39:42.169Z,100102.28
2023-04-26T08:42:44.857Z,100095.25
2023-04-26T08:45:47.561Z,100105.00
2023-04-26T08:48:55.280Z,100089.22
2023-04-26T08:51:57.974Z,100108.59
2023-04-26T08:55:00.967Z,100119.13
2023-04-26T08:58:03.492Z,100125.28
2023-04-26T09:01:06.004Z,100112.09
2023-04-26T09:04:08.656Z,100114.75
2023-04-26T09:07:11.351Z,100112.09
2023-04-26T09:10:14.741Z,100110.34
2023-04-26T09:13:17.398Z,100109.44
2023-04-26T09:16:20.205Z,100101.53
2023-04-26T09:19:52.127Z,100109.47
2023-04-26T09:23:06.049Z,100111.22
2023-04-26T09:26:19.075Z,100124.44
2023-04-26T09:29:21.834Z,100115.59
2023-04-26T09:32:24.997Z,100115.63
2023-04-26T09:35:29.667Z,100111.13
2023-04-26T09:38:32.241Z,100113.81
2023-04-26T09:41:47.002Z,100123.53
2023-04-26T09:44:49.388Z,100120.81
2023-04-26T09:47:51.976Z,100123.50
2023-04-26T09:50:59.063Z,100118.25
2023-04-26T09:54:01.520Z,100114.72
2023-04-26T09:57:04.146Z,100115.59
2023-04-26T10:00:10.360Z,100113.81
2023-04-26T10:03:12.977Z,100115.41
2023-04-26T10:06:16.155Z,100099.38
2023-04-26T10:09:18.757Z,100099.50
2023-04-26T10:12:21.621Z,100117.38
2023-04-26T10:15:24.392Z,100113.84
2023-04-26T10:18:27.034Z,100104.03
2023-04-26T10:21:32.041Z,100106.69
2023-04-26T10:24:37.691Z,100103.75
2023-04-26T10:27:46.922Z,100115.59
2023-04-26T10:30:58.684Z,100110.00
2023-04-26T10:34:22.909Z,100104.19
2023-04-26T10:37:25.403Z,100114.59
2023-04-26T10:40:34.514Z,100114.66
2023-04-26T10:43:42.857Z,100106.41
2023-04-26T10:46:49.416Z,100112.38
2023-04-26T10:49:51.978Z,100106.75
2023-04-26T10:53:02.621Z,100109.34
2023-04-26T10:56:05.184Z,100108.09
2023-04-26T11:02:58.729Z,100105.63
2023-04-26T11:06:01.720Z,100104.16
2023-04-26T11:09:04.394Z,100104.28
2023-04-26T11:12:13.900Z,100096.78
2023-04-26T11:15:16.494Z,100095.75
2023-04-26T11:18:20.124Z,100117.75
2023-04-26T11:21:22.716Z,100113.72
2023-04-26T11:24:25.925Z,100113.72
2023-04-26T11:27:28.411Z,100108.31
2023-04-26T11:30:31.998Z,100108.72
2023-04-26T11:33:34.562Z,100094.41
2023-04-26T11:36:38.565Z,100121.47
2023-04-26T11:39:41.005Z,100107.28
2023-04-26T11:42:46.455Z,100117.94
2023-04-26T11:45:49.219Z,100120.84
2023-04-26T11:48:51.903Z,100114.59
2023-04-26T11:51:54.491Z,100132.16
2023-04-26T11:55:04.848Z,100122.63
2023-04-26T11:58:14.218Z,100121.78
2023-04-26T12:01:26.701Z,100122.63
2023-04-26T12:04:30.711Z,100127.78
2023-04-26T12:07:37.706Z,100134.66
2023-04-26T12:10:40.307Z,100117.63
2023-04-26T12:13:42.935Z,100115.66
2023-04-26T12:16:46.490Z,100125.84
2023-04-26T12:19:49.857Z,100121.47
2023-04-26T12:23:07.988Z,100127.00
2023-04-26T12:26:12.275Z,100138.47
2023-04-26T12:29:14.727Z,100128.81
2023-04-26T12:32:17.279Z,100129.59
2023-04-26T12:35:19.723Z,100133.13
2023-04-26T12:38:22.238Z,100134.06
2023-04-26T12:41:24.867Z,100140.97
2023-04-26T12:44:27.356Z,100144.53
2023-04-26T12:47:31.552Z,100155.84
2023-04-26T12:50:34.148Z,100148.81
2023-04-26T12:53:36.828Z,100139.97
2023-04-26T12:56:43.873Z,100146.94
2023-04-26T12:59:46.651Z,100142.84
2023-04-26T13:02:49.276Z,100137.50
2023-04-26T13:05:52.466Z,100140.75
2023-04-26T13:08:54.896Z,100133.31
2023-04-26T13:11:57.794Z,100156.78
2023-04-26T13:15:01.891Z,100156.09
2023-04-26T13:18:04.584Z,100161.34
2023-04-26T13:21:07.165Z,100162.91
2023-04-26T13:24:09.514Z,100146.19
2023-04-26T13:27:12.040Z,100147.09
2023-04-26T13:30:14.653Z,100154.09
2023-04-26T13:33:17.312Z,100161.53
2023-04-26T13:37:04.502Z,100159.31
2023-04-26T13:40:25.442Z,100167.41
2023-04-26T13:43:27.865Z,100165.59
2023-04-26T13:46:30.746Z,100163.94
2023-04-26T13:49:33.284Z,100162.72
2023-04-26T13:52:37.838Z,100165.88
2023-04-26T13:55:41.338Z,100164.69
2023-04-26T13:58:47.535Z,100158.00
2023-04-26T14:01:54.211Z,100177.16
2023-04-26T14:04:58.110Z,100183.31
2023-04-26T14:08:01.313Z,100193.47
2023-04-26T14:11:07.704Z,100194.31
2023-04-26T14:14:10.243Z,100194.34
2023-04-26T14:17:12.898Z,100202.38
2023-04-26T14:20:15.741Z,100202.50
2023-04-26T14:23:18.871Z,100190.09
2023-04-26T14:26:21.831Z,100183.56
2023-04-26T14:29:24.501Z,100179.59
2023-04-26T14:32:27.065Z,100185.06
2023-04-26T14:35:29.712Z,100181.25
2023-04-26T14:38:32.485Z,100198.28
2023-04-26T14:41:35.396Z,100197.13
2023-04-26T14:44:38.171Z,100208.28
2023-04-26T14:47:40.759Z,100193.25
2023-04-26T14:50:44.460Z,100203.78
2023-04-26T14:53:47.208Z,100201.34
2023-04-26T14:56:49.738Z,100199.66
2023-04-26T14:59:52.166Z,100208.31
2023-04-26T15:02:54.843Z,100199.28
2023-04-26T15:05:57.625Z,100206.81
2023-04-26T15:09:00.384Z,100213.53
2023-04-26T15:12:04.866Z,100217.72
2023-04-26T15:15:07.961Z,100224.16
2023-04-26T15:18:10.534Z,100221.75
2023-04-26T15:21:17.434Z,100215.91
2023-04-26T15:24:20.575Z,100216.06
2023-04-26T15:27:24.946Z,100225.81
2023-04-26T15:30:27.568Z,100231.69
2023-04-26T15:33:30.722Z,100228.72
2023-04-26T15:36:33.238Z,100231.72
2023-04-26T15:39:35.896Z,100225.41
2023-04-26T15:42:38.585Z,100220.75
2023-04-26T15:45:41.008Z,100236.28
2023-04-26T15:48:44.483Z,100234.44
2023-04-26T15:51:47.846Z,100236.25
2023-04-26T15:54:50.452Z,100237.88
2023-04-26T15:57:52.904Z,100232.38
2023-04-26T16:00:55.658Z,100227.03
2023-04-26T16:03:58.623Z,100226.41
2023-04-26T16:07:01.553Z,100226.91
2023-04-26T16:10:05.150Z,100239.19
2023-04-26T16:13:07.920Z,100236.75
2023-04-26T16:16:11.726Z,100229.66
2023-04-26T16:19:14.413Z,100235.88
2023-04-26T16:22:20.379Z,100237.78
2023-04-26T16:25:23.046Z,100238.72
2023-04-26T16:28:25.663Z,100235.03
2023-04-26T16:31:28.286Z,100236.72
2023-04-26T16:34:30.852Z,100235.03
2023-04-26T16:37:33.442Z,100255.22
2023-04-26T16:40:36.001Z,100247.22
2023-04-26T16:43:38.867Z,100247.22
2023-04-26T16:46:41.423Z,100266.28
2023-04-26T16:49:44.205Z,100266.03
2023-04-26T16:52:47.034Z,100268.50
2023-04-26T16:55:50.452Z,100267.38
2023-04-26T16:58:53.454Z,100275.88
2023-04-26T17:01:56.598Z,100281.66
2023-04-26T17:04:59.875Z,100286.84
2023-04-26T17:08:02.478Z,100295.41
2023-04-26T17:11:05.524Z,100287.44
2023-04-26T17:14:07.992Z,100289.84
2023-04-26T17:17:10.457Z,100290.34
2023-04-26T17:20:13.721Z,100286.78
2023-04-26T17:23:17.378Z,100295.31
2023-04-26T17:26:19.899Z,100302.13
2023-04-26T17:29:22.728Z,100296.78
2023-04-26T17:32:25.227Z,100302.66
2023-04-26T17:35:27.778Z,100305.09
2023-04-26T17:39:04.492Z,100304.91
2023-04-26T17:42:06.849Z,100306.50
2023-04-26T17:45:12.076Z,100308.81
2023-04-26T17:48:17.148Z,100317.53
2023-04-26T17:51:19.725Z,100318.38
2023-04-26T17:54:24.013Z,100329.75
2023-04-26T17:57:30.149Z,100338.31
2023-04-26T18:00:33.070Z,100335.72
2023-04-26T18:03:36.095Z,100343.69
2023-04-26T18:06:40.002Z,100343.28
2023-04-26T18:09:42.649Z,100345.22
2023-04-26T18:12:45.146Z,100341.41
2023-04-26T18:15:47.988Z,100350.91
2023-04-26T18:18:50.540Z,100352.84
2023-04-26T18:21:54.047Z,100354.38
2023-04-26T18:24:56.815Z,100362.84
2023-04-26T18:27:59.239Z,100357.03
2023-04-26T18:31:01.894Z,100357.84
2023-04-26T18:34:04.415Z,100371.31
2023-04-26T18:37:07.116Z,100380.00
2023-04-26T18:40:10.355Z,100377.56
2023-04-26T18:43:12.871Z,100386.09
2023-04-26T18:46:15.505Z,100385.72
2023-04-26T18:49:17.941Z,100384.69
2023-04-26T18:52:20.395Z,100392.59
2023-04-26T18:55:23.080Z,100390.44
2023-04-26T18:58:25.674Z,100398.78
2023-04-26T19:01:28.347Z,100408.78
2023-04-26T19:04:31.065Z,100401.59
2023-04-26T19:07:33.688Z,100402.72
2023-04-26T19:10:36.300Z,100406.88
2023-04-26T19:13:42.917Z,100415.41
2023-04-26T19:16:45.381Z,100410.28
2023-04-26T19:19:47.860Z,100414.47
2023-04-26T19:22:50.468Z,100414.53
2023-04-26T19:25:53.267Z,100410.19
2023-04-26T19:28:56.010Z,100415.22
2023-04-26T19:32:00.194Z,100410.13
2023-04-26T19:35:06.124Z,100421.88
2023-04-26T19:38:10.127Z,100411.72
2023-04-26T19:41:13.264Z,100414.63
2023-04-26T19:44:15.977Z,100419.28
2023-04-26T19:47:18.767Z,100413.66
2023-04-26T19:50:21.238Z,100417.72
2023-04-26T19:53:23.755Z,100420.59
2023-04-26T19:56:26.398Z,100425.63
2023-04-26T19:59:28.872Z,100430.59
2023-04-26T20:02:31.762Z,100419.41
2023-04-26T20:05:34.783Z,100428.00
2023-04-26T20:08:37.736Z,100429.44
2023-04-26T20:11:40.358Z,100452.94
2023-04-26T20:14:43.430Z,100438.53
2023-04-26T20:17:46.085Z,100442.09
2023-04-26T20:20:49.346Z,100451.69
2023-04-26T20:23:52.477Z,100455.13
2023-04-26T20:26:56.640Z,100455.63
2023-04-26T20:29:59.173Z,100449.59
2023-04-26T20:33:02.134Z,100447.31
2023-04-26T20:36:05.318Z,100456.94
2023-04-26T20:39:09.974Z,100455.75
2023-04-26T20:42:12.773Z,100467.09
2023-04-26T20:45:16.690Z,100458.50
2023-04-26T20:48:19.283Z,100465.13
2023-04-26T20:51:21.797Z,100468.19
2023-04-26T20:54:25.315Z,100466.22
2023-04-26T20:57:28.201Z,100478.13
2023-04-26T21:00:30.704Z,100462.16
2023-04-26T21:03:34.584Z,100463.59
2023-04-26T21:06:37.719Z,100473.97
2023-04-26T21:09:40.415Z,100473.91
2023-04-26T21:12:42.922Z,100490.91
2023-04-26T21:15:45.994Z,100471.78
2023-04-26T21:18:48.929Z,100484.34
2023-04-26T21:21:51.476Z,100490.44
2023-04-26T21:24:54.039Z,100485.72
2023-04-26T21:27:58.254Z,100494.47
2023-04-26T21:31:04.902Z,100498.19
2023-04-26T21:34:07.516Z,100498.63
2023-04-26T21:37:10.657Z,100495.53
2023-04-26T21:40:13.529Z,100498.63
2023-04-26T21:43:17.642Z,100496.13
2023-04-26T21:46:20.235Z,100499.69
2023-04-26T21:49:22.807Z,100510.34
2023-04-26T21:52:25.443Z,100511.78
2023-04-26T21:55:27.798Z,100501.13
2023-04-26T21:58:30.362Z,100500.97
2023-04-26T22:01:32.980Z,100510.00
2023-04-26T22:04:36.100Z,100520.66
2023-04-26T22:07:38.491Z,100515.53
2023-04-26T22:10:40.912Z,100516.66
2023-04-26T22:13:43.366Z,100522.16
2023-04-26T22:16:46.057Z,100510.19
2023-04-26T22:19:48.841Z,100513.94
2023-04-26T22:22:51.251Z,100517.88
2023-04-26T22:25:53.929Z,100524.47
2023-04-26T22:28:56.359Z,100522.44
2023-04-26T22:31:59.160Z,100532.72
2023-04-26T22:35:01.641Z,100546.22
2023-04-26T22:38:04.093Z,100546.84
2023-04-26T22:41:07.396Z,100547.91
2023-04-26T22:44:09.914Z,100557.81
2023-04-26T22:47:12.200Z,100548.97
2023-04-26T22:50:14.997Z,100554.88
2023-04-26T22:53:17.420Z,100547.75
2023-04-26T22:56:19.899Z,100557.00
2023-04-26T22:59:22.346Z,100550.34
2023-04-26T23:02:25.068Z,100556.91
2023-04-26T23:05:27.912Z,100559.06
2023-04-26T23:08:30.361Z,100558.41
2023-04-26T23:11:33.414Z,100558.19
2023-04-26T23:14:36.079Z,100559.50
2023-04-26T23:17:38.950Z,100565.09
2023-04-26T23:20:41.533Z,100577.00
2023-04-26T23:23:44.234Z,100583.66
2023-04-26T23:26:46.887Z,100583.66
2023-04-26T23:29:50.051Z,100582.91
2023-04-26T23:32:52.705Z,100585.09
2023-04-26T23:35:55.379Z,100583.66
2023-04-26T23:38:58.140Z,100591.44
2023-04-26T23:42:00.816Z,100587.13
2023-04-26T23:45:04.442Z,100591.38
2023-04-26T23:48:08.466Z,100589.53
2023-04-26T23:51:11.019Z,100583.94
2023-04-26T23:54:13.611Z,100576.94
2023-04-26T23:57:16.531Z,100580.31
